Time;durP1;ratioP1;P1;durP2;ratioP2;P2;SDS_P1;SDS_P2;PMS_P1;PMS_P2;Temp;Humidity;BMP_temperature;BMP_pressure;BME280_temperature;BME280_humidity;BME280_pressure;Samples;Min_cycle;Max_cycle;Signal;HPM_P1;HPM_P2
2022/02/27 00:07:41;;;;;;;15.35;3.95;;;;;;;0.83;83.44;101977.03;20988429;28;20057;-67
2022/02/27 00:17:44;;;;;;;22.40;5.85;;;;;;;0.69;84.52;101977.22;20991718;28;20095;-67
2022/02/27 00:27:47;;;;;;;20.48;6.57;;;;;;;0.59;85.49;101976.72;20991069;28;20048;-67
2022/02/27 00:37:48;;;;;;;17.30;6.05;;;;;;;0.52;86.28;101960.91;20989409;28;20110;-67
2022/02/27 00:47:52;;;;;;;14.43;5.50;;;;;;;0.39;87.59;101965.41;20989903;28;20560;-68
2022/02/27 00:57:56;;;;;;;22.02;7.68;;;;;;;0.28;89.79;101969.09;20988781;28;20564;-67
2022/02/27 01:07:58;;;;;;;24.02;7.50;;;;;;;0.19;90.12;101967.84;20986220;28;20056;-68
2022/02/27 01:18:02;;;;;;;19.10;4.90;;;;;;;-0.01;89.98;101971.06;20986994;28;20135;-68
2022/02/27 01:28:04;;;;;;;14.55;4.18;;;;;;;-0.29;91.84;101954.19;20985551;28;20044;-72
2022/02/27 01:38:07;;;;;;;12.38;4.60;;;;;;;-0.58;93.59;101955.16;20984682;28;20147;-69
2022/02/27 01:48:10;;;;;;;13.15;4.35;;;;;;;-0.71;94.28;101954.44;20985114;28;20049;-72
2022/02/27 01:58:13;;;;;;;16.20;4.65;;;;;;;-0.70;94.47;101951.06;20985391;28;20681;-70
2022/02/27 02:08:16;;;;;;;12.52;4.65;;;;;;;-0.75;94.44;101942.22;20983443;28;20059;-70
2022/02/27 02:18:18;;;;;;;23.63;4.80;;;;;;;-0.76;95.16;101930.16;20982866;28;20049;-69
2022/02/27 02:28:21;;;;;;;15.70;4.47;;;;;;;-0.73;95.04;101930.31;20983679;28;20060;-72
2022/02/27 02:38:26;;;;;;;14.70;4.35;;;;;;;-0.76;95.01;101927.59;20983942;28;20056;-71
2022/02/27 02:48:27;;;;;;;17.98;5.68;;;;;;;-0.83;95.27;101923.78;20982532;28;20052;-68
2022/02/27 02:58:35;;;;;;;13.13;4.03;;;;;;;-0.90;95.26;101914.88;20981362;28;20049;-71
2022/02/27 03:08:41;;;;;;;11.90;4.60;;;;;;;-1.18;97.31;101906.44;20976767;28;20048;-69
2022/02/27 03:18:43;;;;;;;15.00;4.80;;;;;;;-1.37;98.26;101896.78;20980086;28;20098;-71
2022/02/27 03:28:44;;;;;;;14.48;4.68;;;;;;;-1.40;99.60;101901.75;20983286;28;20052;-68
2022/02/27 03:38:46;;;;;;;11.77;4.60;;;;;;;-1.48;99.07;101905.59;20994178;28;20055;-70
2022/02/27 03:48:47;;;;;;;15.60;4.32;;;;;;;-1.53;99.92;101905.31;20994070;28;20056;-69
2022/02/27 03:58:49;;;;;;;14.35;4.60;;;;;;;-1.51;99.68;101918.25;20993148;28;20048;-69
2022/02/27 04:08:51;;;;;;;12.98;5.30;;;;;;;-1.51;99.77;101907.97;20991508;28;20136;-68
2022/02/27 04:18:54;;;;;;;15.23;4.43;;;;;;;-1.67;100.00;101901.09;20988853;28;20098;-72
2022/02/27 04:28:57;;;;;;;13.38;4.40;;;;;;;-1.78;100.00;101907.25;20990477;28;20081;-71
2022/02/27 04:39:02;;;;;;;19.00;4.97;;;;;;;-1.85;100.00;101904.34;20989212;28;20057;-70
2022/02/27 04:49:03;;;;;;;12.38;4.60;;;;;;;-1.66;100.00;101902.84;20989226;28;20117;-72
2022/02/27 04:59:06;;;;;;;17.92;4.93;;;;;;;-1.66;100.00;101907.97;20987804;28;20056;-69
2022/02/27 05:09:15;;;;;;;13.70;4.87;;;;;;;-1.75;100.00;101904.88;20986503;28;20094;-71
2022/02/27 05:19:17;;;;;;;11.48;5.00;;;;;;;-1.72;100.00;101913.66;20988626;28;20048;-69
2022/02/27 05:29:18;;;;;;;14.68;5.13;;;;;;;-1.58;100.00;101906.75;20986982;28;20109;-70
2022/02/27 05:39:21;;;;;;;18.50;6.00;;;;;;;-1.58;100.00;101915.34;20984564;28;20044;-72
2022/02/27 05:49:23;;;;;;;13.13;5.32;;;;;;;-1.58;100.00;101928.19;20985123;28;20053;-71
2022/02/27 05:59:25;;;;;;;15.15;5.55;;;;;;;-1.49;100.00;101929.47;20982842;28;20106;-68
2022/02/27 06:09:27;;;;;;;18.17;6.45;;;;;;;-1.27;100.00;101940.19;20978830;28;20052;-68
2022/02/27 06:19:30;;;;;;;14.68;5.75;;;;;;;-1.16;100.00;101939.09;20982603;28;20072;-67
2022/02/27 06:29:33;;;;;;;20.73;6.57;;;;;;;-1.05;100.00;101952.59;20982139;28;20131;-67
2022/02/27 06:39:35;;;;;;;19.05;6.53;;;;;;;-0.96;100.00;101953.06;20981475;28;20156;-68
2022/02/27 06:49:38;;;;;;;18.13;6.47;;;;;;;-0.73;100.00;101968.88;20981822;28;20056;-68
2022/02/27 06:59:42;;;;;;;18.52;7.55;;;;;;;-0.52;100.00;101976.09;20981409;28;20109;-69
2022/02/27 07:09:44;;;;;;;21.98;7.20;;;;;;;-0.10;99.69;101978.31;20993913;28;20139;-69
2022/02/27 07:19:49;;;;;;;17.60;7.25;;;;;;;0.27;98.30;101981.09;20992810;28;20048;-69
2022/02/27 07:29:51;;;;;;;22.35;7.70;;;;;;;0.57;96.78;101984.34;20995678;28;20052;-69
2022/02/27 07:39:53;;;;;;;19.30;7.00;;;;;;;0.90;94.85;101994.56;20994160;28;20044;-67
2022/02/27 07:49:56;;;;;;;16.95;6.57;;;;;;;1.10;93.34;101995.53;20995111;28;20451;-69
2022/02/27 08:00:00;;;;;;;20.52;7.82;;;;;;;1.29;92.33;102008.50;20993223;28;20048;-68
2022/02/27 08:10:03;;;;;;;18.08;7.28;;;;;;;1.48;91.17;102005.97;20980413;28;20140;-68
2022/02/27 08:20:05;;;;;;;19.95;7.10;;;;;;;1.74;90.61;102009.78;20977820;28;20099;-69
2022/02/27 08:30:08;;;;;;;19.63;8.05;;;;;;;2.03;90.20;102003.34;20976534;28;20128;-69
2022/02/27 08:40:10;;;;;;;16.42;7.35;;;;;;;2.28;88.02;102000.13;20943547;28;20041;-71
2022/02/27 08:50:13;;;;;;;19.13;7.50;;;;;;;2.77;85.16;101997.03;20944112;28;20413;-71
2022/02/27 09:00:17;;;;;;;17.20;6.75;;;;;;;3.06;82.18;101984.41;20936835;28;20151;-80
2022/02/27 09:10:18;;;;;;;13.73;6.63;;;;;;;3.29;82.11;101986.22;20968919;28;20052;-74
2022/02/27 09:20:22;;;;;;;17.83;7.03;;;;;;;3.74;79.44;101978.47;20979384;28;20616;-75
2022/02/27 09:30:23;;;;;;;17.80;7.32;;;;;;;4.14;77.44;101969.53;20978037;28;20040;-70
2022/02/27 09:40:27;;;;;;;13.32;6.00;;;;;;;4.53;74.32;101963.97;20975072;28;20671;-71
2022/02/27 09:50:28;;;;;;;11.77;5.60;;;;;;;5.06;68.02;101951.88;20970971;28;20055;-79
2022/02/27 10:00:31;;;;;;;10.68;4.28;;;;;;;5.32;65.02;101945.78;20930876;28;20086;-70
2022/02/27 10:10:35;;;;;;;9.23;3.75;;;;;;;5.73;61.72;101953.91;20929862;28;20037;-71
2022/02/27 10:20:36;;;;;;;10.45;3.95;;;;;;;5.88;62.29;101943.06;20935764;28;20055;-70
2022/02/27 10:30:38;;;;;;;10.10;3.92;;;;;;;6.29;59.54;101931.25;20936541;28;20037;-76
2022/02/27 10:40:49;;;;;;;10.95;3.83;;;;;;;6.20;57.07;101924.91;20930561;28;20068;-69
2022/02/27 10:51:09;;;;;;;10.73;3.85;;;;;;;6.58;55.99;101907.69;20959730;28;20494;-71
2022/02/27 11:01:21;;;;;;;7.80;4.10;;;;;;;6.71;55.40;101904.53;20951986;28;20048;-72
2022/02/27 11:11:24;;;;;;;9.55;3.83;;;;;;;6.81;55.50;101896.09;20955164;28;20477;-70
2022/02/27 11:21:26;;;;;;;8.05;4.13;;;;;;;6.84;52.34;101901.38;20959699;28;20563;-73
2022/02/27 11:31:28;;;;;;;9.93;4.55;;;;;;;6.91;55.24;101877.25;20951473;28;20492;-70
2022/02/27 11:41:46;;;;;;;6.77;4.07;;;;;;;7.22;51.93;101883.13;20954604;28;20055;-72
2022/02/27 11:52:01;;;;;;;9.30;3.63;;;;;;;7.12;52.99;101856.00;20950648;28;20087;-70
2022/02/27 12:02:02;;;;;;;;;;;;;;;7.27;50.26;101845.03;20947644;28;20056;-69
2022/02/27 12:12:05;;;;;;;9.70;3.30;;;;;;;7.63;48.26;101844.91;20935528;28;19927;-72
2022/02/27 12:22:06;;;;;;;8.63;3.38;;;;;;;7.60;47.86;101823.09;20941946;28;20070;-70
2022/02/27 12:32:17;;;;;;;6.22;2.97;;;;;;;7.91;45.20;101815.03;20952641;28;20040;-73
2022/02/27 12:42:22;;;;;;;6.32;2.58;;;;;;;7.69;47.31;101807.66;20926957;28;20060;-72
2022/02/27 12:52:26;;;;;;;7.05;2.97;;;;;;;8.05;44.01;101811.75;20928121;28;20051;-73
2022/02/27 13:02:28;;;;;;;6.22;2.88;;;;;;;7.79;45.27;101795.66;20934171;28;20045;-70
2022/02/27 13:12:30;;;;;;;6.38;2.80;;;;;;;7.83;45.50;101795.75;20934831;28;20049;-71
2022/02/27 13:22:35;;;;;;;7.65;3.22;;;;;;;8.01;45.96;101787.38;20923958;28;20509;-72
2022/02/27 13:32:48;;;;;;;8.13;3.30;;;;;;;8.13;44.57;101791.91;20926733;28;20044;-72
2022/02/27 13:42:54;;;;;;;8.35;3.13;;;;;;;8.20;42.73;101770.28;20932844;28;20122;-70
2022/02/27 13:53:00;;;;;;;7.85;3.08;;;;;;;8.46;43.68;101758.53;20929001;28;20132;-70
2022/02/27 14:03:09;;;;;;;10.43;3.60;;;;;;;8.30;45.26;101761.75;20937566;28;20402;-73
2022/02/27 14:13:14;;;;;;;9.63;3.50;;;;;;;8.16;44.93;101747.59;20924481;28;20124;-69
2022/02/27 14:23:16;;;;;;;7.73;3.33;;;;;;;8.34;43.43;101750.50;20930976;28;20477;-73
2022/02/27 14:33:18;;;;;;;7.85;3.15;;;;;;;8.26;42.92;101743.41;20926531;28;20807;-70
2022/02/27 14:43:19;;;;;;;6.10;3.00;;;;;;;8.02;43.65;101744.78;20923640;28;20061;-70
2022/02/27 14:53:21;;;;;;;7.60;2.97;;;;;;;8.11;45.70;101717.97;20932858;28;20087;-73
2022/02/27 15:03:22;;;;;;;6.38;2.90;;;;;;;8.04;45.36;101716.09;20927197;28;20048;-70
2022/02/27 15:13:24;;;;;;;8.40;2.80;;;;;;;8.07;45.04;101719.63;20925956;28;20044;-70
2022/02/27 15:23:26;;;;;;;6.95;2.88;;;;;;;8.01;46.46;101716.06;20928327;28;20049;-70
2022/02/27 15:33:27;;;;;;;7.93;3.20;;;;;;;7.89;46.55;101712.38;20934603;28;20115;-71
2022/02/27 15:43:28;;;;;;;8.85;3.65;;;;;;;8.05;45.75;101718.75;20941220;28;20507;-72
2022/02/27 15:53:30;;;;;;;7.35;2.88;;;;;;;7.97;44.26;101718.63;20944995;28;20093;-74
2022/02/27 16:03:32;;;;;;;7.88;3.38;;;;;;;7.68;44.52;101712.91;20932108;28;20045;-70
2022/02/27 16:13:33;;;;;;;6.65;3.20;;;;;;;7.54;45.83;101718.75;20947258;28;20509;-70
2022/02/27 16:23:35;;;;;;;8.73;3.45;;;;;;;7.39;45.54;101724.56;20935222;28;20052;-72
2022/02/27 16:33:38;;;;;;;7.65;2.92;;;;;;;7.01;47.87;101735.13;20935758;28;20103;-70
2022/02/27 16:43:45;;;;;;;8.05;3.42;;;;;;;6.96;47.92;101738.47;20943185;28;20052;-70
2022/02/27 16:53:47;;;;;;;10.43;4.15;;;;;;;6.70;48.88;101741.38;20929921;28;20048;-72
2022/02/27 17:03:49;;;;;;;12.57;5.10;;;;;;;6.55;50.50;101743.66;20935390;28;20709;-70
2022/02/27 17:13:50;;;;;;;7.88;3.92;;;;;;;6.35;50.86;101774.44;20939920;28;20049;-73
2022/02/27 17:23:53;;;;;;;13.10;6.32;;;;;;;6.13;52.21;101788.63;20933673;28;20041;-69
2022/02/27 17:33:55;;;;;;;8.07;4.75;;;;;;;5.79;52.92;101799.84;20935223;28;20037;-77
2022/02/27 17:43:57;;;;;;;9.57;4.28;;;;;;;5.65;53.67;101820.28;20927916;28;20106;-69
2022/02/27 17:53:59;;;;;;;12.05;4.82;;;;;;;5.51;54.39;101813.81;20930594;28;20041;-71
2022/02/27 18:04:00;;;;;;;10.65;4.20;;;;;;;5.45;54.02;101822.31;20927627;28;20040;-72
2022/02/27 18:14:02;;;;;;;9.15;4.07;;;;;;;5.24;55.27;101826.94;20916604;28;20110;-73
2022/02/27 18:24:04;;;;;;;9.80;4.10;;;;;;;4.93;56.37;101835.50;20927049;28;20049;-73
2022/02/27 18:34:06;;;;;;;7.70;4.80;;;;;;;4.71;57.45;101844.38;20928992;28;20040;-76
2022/02/27 18:44:07;;;;;;;10.80;5.90;;;;;;;4.68;56.66;101860.69;20931776;28;20645;-70
2022/02/27 18:54:09;;;;;;;8.25;4.53;;;;;;;4.68;56.12;101863.28;20931109;28;20044;-71
2022/02/27 19:04:11;;;;;;;12.52;5.53;;;;;;;4.51;56.78;101865.38;20933838;28;20049;-74
2022/02/27 19:14:13;;;;;;;10.07;4.80;;;;;;;4.40;57.39;101877.09;20939568;28;20405;-72
2022/02/27 19:24:14;;;;;;;10.07;4.63;;;;;;;4.27;58.31;101878.41;20949232;28;20052;-70
2022/02/27 19:34:15;;;;;;;9.88;4.60;;;;;;;4.10;58.85;101880.41;20935785;28;20497;-71
2022/02/27 19:44:18;;;;;;;9.27;3.97;;;;;;;4.08;58.75;101878.63;20941064;28;20048;-71
2022/02/27 19:54:19;;;;;;;10.15;5.30;;;;;;;3.83;60.98;101880.34;20945920;28;20053;-68
2022/02/27 20:04:21;;;;;;;9.88;5.05;;;;;;;3.76;60.72;101888.72;20933743;28;20438;-68
2022/02/27 20:14:22;;;;;;;11.15;4.95;;;;;;;3.57;62.15;101886.28;20947555;28;20045;-69
2022/02/27 20:24:24;;;;;;;9.88;4.53;;;;;;;3.56;60.90;101880.22;20933492;28;20049;-71
2022/02/27 20:34:26;;;;;;;11.98;5.18;;;;;;;3.30;64.12;101881.84;20945323;28;20051;-71
2022/02/27 20:44:27;;;;;;;11.98;5.65;;;;;;;3.44;60.84;101876.28;20941808;28;20048;-69
2022/02/27 20:54:30;;;;;;;10.77;5.70;;;;;;;3.18;62.13;101870.16;20937732;28;20460;-76
2022/02/27 21:04:31;;;;;;;15.50;7.25;;;;;;;3.13;62.36;101867.41;20950118;28;20039;-69
2022/02/27 21:14:33;;;;;;;11.18;5.75;;;;;;;2.96;62.92;101863.28;20938504;28;20596;-72
2022/02/27 21:24:34;;;;;;;18.23;7.82;;;;;;;2.81;63.99;101872.19;20934451;28;20045;-68
2022/02/27 21:34:36;;;;;;;21.10;7.80;;;;;;;2.58;64.49;101865.22;20933222;28;20036;-70
2022/02/27 21:44:37;;;;;;;20.75;9.70;;;;;;;2.66;63.72;101862.97;20924722;28;20048;-72
2022/02/27 21:54:39;;;;;;;12.45;6.97;;;;;;;2.43;65.00;101854.28;20935204;28;20075;-69
2022/02/27 22:04:40;;;;;;;15.35;7.80;;;;;;;2.30;65.80;101855.50;20929322;28;20110;-69
2022/02/27 22:14:42;;;;;;;11.85;6.03;;;;;;;2.33;64.95;101862.47;20927954;28;20052;-77
2022/02/27 22:24:44;;;;;;;12.52;6.28;;;;;;;2.22;65.29;101865.50;20932288;28;20061;-73
2022/02/27 22:34:45;;;;;;;12.95;6.30;;;;;;;2.15;66.00;101876.38;20925361;28;20040;-72
2022/02/27 22:44:47;;;;;;;12.95;6.55;;;;;;;2.26;65.32;101877.72;20934254;28;20056;-70
2022/02/27 22:54:48;;;;;;;12.35;6.68;;;;;;;2.24;65.57;101879.34;20931848;28;20391;-72
2022/02/27 23:15:24;;;;;;;14.80;7.30;;;;;;;1.95;67.07;101895.31;20879288;28;20053;-68
2022/02/27 23:25:25;;;;;;;12.00;6.10;;;;;;;1.40;74.06;101903.22;20931017;28;20095;-69
2022/02/27 23:35:27;;;;;;;12.25;6.15;;;;;;;0.83;75.61;101902.28;20927851;28;20098;-70
2022/02/27 23:45:29;;;;;;;14.55;6.82;;;;;;;0.70;75.70;101909.41;20940114;28;20040;-73
2022/02/27 23:55:32;;;;;;;14.48;6.85;;;;;;;0.70;77.31;101908.53;20945908;28;20045;-70
